sensor_id;sensor_type;location;lat;lon;timestamp;P1;durP1;ratioP1;P2;durP2;ratioP2
39874;SDS011;25547;52.530;13.194;2023-01-09T00:00:54;4.15;;;1.95;;
39874;SDS011;25547;52.530;13.194;2023-01-09T00:03:20;5.35;;;2.35;;
39874;SDS011;25547;52.530;13.194;2023-01-09T00:05:48;5.40;;;2.10;;
39874;SDS011;25547;52.530;13.194;2023-01-09T00:08:14;6.55;;;2.63;;
39874;SDS011;25547;52.530;13.194;2023-01-09T00:10:40;5.40;;;2.30;;
39874;SDS011;25547;52.530;13.194;2023-01-09T00:13:05;6.38;;;2.45;;
39874;SDS011;25547;52.530;13.194;2023-01-09T00:15:38;3.93;;;1.60;;
39874;SDS011;25547;52.530;13.194;2023-01-09T00:18:06;4.88;;;1.92;;
39874;SDS011;25547;52.530;13.194;2023-01-09T00:20:32;4.00;;;1.88;;
39874;SDS011;25547;52.530;13.194;2023-01-09T00:22:59;6.20;;;1.65;;
39874;SDS011;25547;52.530;13.194;2023-01-09T00:25:27;5.40;;;2.15;;
39874;SDS011;25547;52.530;13.194;2023-01-09T00:27:52;5.05;;;2.05;;
39874;SDS011;25547;52.530;13.194;2023-01-09T00:30:18;4.63;;;1.83;;
39874;SDS011;25547;52.530;13.194;2023-01-09T00:32:46;5.40;;;2.20;;
39874;SDS011;25547;52.530;13.194;2023-01-09T00:35:13;5.45;;;2.58;;
39874;SDS011;25547;52.530;13.194;2023-01-09T00:37:42;5.43;;;2.37;;
39874;SDS011;25547;52.530;13.194;2023-01-09T00:40:14;3.30;;;1.55;;
39874;SDS011;25547;52.530;13.194;2023-01-09T00:42:44;5.30;;;2.53;;
39874;SDS011;25547;52.530;13.194;2023-01-09T00:45:13;5.10;;;2.15;;
39874;SDS011;25547;52.530;13.194;2023-01-09T00:47:47;3.85;;;1.50;;
39874;SDS011;25547;52.530;13.194;2023-01-09T00:50:17;4.30;;;2.05;;
39874;SDS011;25547;52.530;13.194;2023-01-09T00:52:52;4.97;;;1.80;;
39874;SDS011;25547;52.530;13.194;2023-01-09T00:55:19;3.88;;;1.83;;
39874;SDS011;25547;52.530;13.194;2023-01-09T00:57:45;4.70;;;2.03;;
39874;SDS011;25547;52.530;13.194;2023-01-09T01:00:11;5.13;;;2.53;;
39874;SDS011;25547;52.530;13.194;2023-01-09T01:02:37;7.32;;;2.17;;
39874;SDS011;25547;52.530;13.194;2023-01-09T01:05:05;3.75;;;2.03;;
39874;SDS011;25547;52.530;13.194;2023-01-09T01:07:52;5.95;;;3.20;;
39874;SDS011;25547;52.530;13.194;2023-01-09T01:10:21;6.88;;;2.10;;
39874;SDS011;25547;52.530;13.194;2023-01-09T01:12:48;6.87;;;2.00;;
39874;SDS011;25547;52.530;13.194;2023-01-09T01:15:15;5.95;;;2.13;;
39874;SDS011;25547;52.530;13.194;2023-01-09T01:17:41;5.57;;;3.40;;
39874;SDS011;25547;52.530;13.194;2023-01-09T01:20:12;6.22;;;2.75;;
39874;SDS011;25547;52.530;13.194;2023-01-09T01:22:39;5.97;;;2.60;;
39874;SDS011;25547;52.530;13.194;2023-01-09T01:25:08;4.82;;;2.30;;
39874;SDS011;25547;52.530;13.194;2023-01-09T01:30:10;5.38;;;3.03;;
39874;SDS011;25547;52.530;13.194;2023-01-09T01:32:37;6.65;;;3.08;;
39874;SDS011;25547;52.530;13.194;2023-01-09T01:35:03;4.60;;;2.60;;
39874;SDS011;25547;52.530;13.194;2023-01-09T01:37:29;5.15;;;3.20;;
39874;SDS011;25547;52.530;13.194;2023-01-09T01:39:55;5.68;;;3.40;;
39874;SDS011;25547;52.530;13.194;2023-01-09T01:42:23;7.70;;;3.58;;
39874;SDS011;25547;52.530;13.194;2023-01-09T01:50:20;7.43;;;2.95;;
39874;SDS011;25547;52.530;13.194;2023-01-09T01:52:54;7.13;;;3.08;;
39874;SDS011;25547;52.530;13.194;2023-01-09T01:55:38;8.98;;;4.22;;
39874;SDS011;25547;52.530;13.194;2023-01-09T01:58:12;6.95;;;4.07;;
39874;SDS011;25547;52.530;13.194;2023-01-09T02:00:41;6.88;;;3.30;;
39874;SDS011;25547;52.530;13.194;2023-01-09T02:03:08;8.27;;;3.90;;
39874;SDS011;25547;52.530;13.194;2023-01-09T02:05:36;7.45;;;3.95;;
39874;SDS011;25547;52.530;13.194;2023-01-09T02:08:03;6.53;;;3.25;;
39874;SDS011;25547;52.530;13.194;2023-01-09T02:10:33;5.68;;;3.50;;
39874;SDS011;25547;52.530;13.194;2023-01-09T02:12:58;9.05;;;4.18;;
39874;SDS011;25547;52.530;13.194;2023-01-09T02:15:26;6.60;;;4.65;;
39874;SDS011;25547;52.530;13.194;2023-01-09T02:31:57;10.75;;;4.88;;
39874;SDS011;25547;52.530;13.194;2023-01-09T02:34:44;8.25;;;5.03;;
39874;SDS011;25547;52.530;13.194;2023-01-09T02:40:19;9.82;;;4.95;;
39874;SDS011;25547;52.530;13.194;2023-01-09T02:43:01;11.35;;;5.78;;
39874;SDS011;25547;52.530;13.194;2023-01-09T02:45:29;9.35;;;4.97;;
39874;SDS011;25547;52.530;13.194;2023-01-09T02:47:54;9.20;;;5.43;;
39874;SDS011;25547;52.530;13.194;2023-01-09T02:50:24;11.65;;;5.75;;
39874;SDS011;25547;52.530;13.194;2023-01-09T03:01:32;13.55;;;7.88;;
39874;SDS011;25547;52.530;13.194;2023-01-09T03:07:26;11.30;;;6.65;;
39874;SDS011;25547;52.530;13.194;2023-01-09T03:10:21;11.38;;;5.60;;
39874;SDS011;25547;52.530;13.194;2023-01-09T03:12:51;11.55;;;6.72;;
39874;SDS011;25547;52.530;13.194;2023-01-09T03:15:24;12.25;;;6.20;;
39874;SDS011;25547;52.530;13.194;2023-01-09T03:17:52;11.93;;;6.70;;
39874;SDS011;25547;52.530;13.194;2023-01-09T03:20:20;11.35;;;6.07;;
39874;SDS011;25547;52.530;13.194;2023-01-09T03:22:57;11.20;;;7.13;;
39874;SDS011;25547;52.530;13.194;2023-01-09T03:25:25;13.15;;;6.85;;
39874;SDS011;25547;52.530;13.194;2023-01-09T03:27:57;12.85;;;7.10;;
39874;SDS011;25547;52.530;13.194;2023-01-09T03:30:28;9.68;;;5.78;;
39874;SDS011;25547;52.530;13.194;2023-01-09T03:32:58;6.63;;;4.30;;
39874;SDS011;25547;52.530;13.194;2023-01-09T03:35:24;13.40;;;7.65;;
39874;SDS011;25547;52.530;13.194;2023-01-09T03:37:54;10.32;;;5.85;;
39874;SDS011;25547;52.530;13.194;2023-01-09T03:40:23;11.93;;;6.65;;
39874;SDS011;25547;52.530;13.194;2023-01-09T03:42:49;14.25;;;7.07;;
39874;SDS011;25547;52.530;13.194;2023-01-09T03:45:16;10.98;;;6.80;;
39874;SDS011;25547;52.530;13.194;2023-01-09T03:47:42;12.35;;;7.90;;
39874;SDS011;25547;52.530;13.194;2023-01-09T03:50:08;13.13;;;7.38;;
39874;SDS011;25547;52.530;13.194;2023-01-09T03:52:34;13.23;;;8.13;;
39874;SDS011;25547;52.530;13.194;2023-01-09T03:55:02;12.25;;;7.10;;
39874;SDS011;25547;52.530;13.194;2023-01-09T03:57:28;12.80;;;7.38;;
39874;SDS011;25547;52.530;13.194;2023-01-09T03:59:53;11.60;;;6.28;;
39874;SDS011;25547;52.530;13.194;2023-01-09T04:02:21;12.75;;;7.18;;
39874;SDS011;25547;52.530;13.194;2023-01-09T04:04:47;15.27;;;7.75;;
39874;SDS011;25547;52.530;13.194;2023-01-09T04:07:15;14.90;;;8.23;;
39874;SDS011;25547;52.530;13.194;2023-01-09T04:09:41;10.65;;;6.80;;
39874;SDS011;25547;52.530;13.194;2023-01-09T04:12:06;10.63;;;6.53;;
39874;SDS011;25547;52.530;13.194;2023-01-09T04:14:32;16.25;;;7.90;;
39874;SDS011;25547;52.530;13.194;2023-01-09T04:17:00;12.65;;;6.85;;
39874;SDS011;25547;52.530;13.194;2023-01-09T04:19:27;14.63;;;7.72;;
39874;SDS011;25547;52.530;13.194;2023-01-09T04:21:53;12.07;;;6.82;;
39874;SDS011;25547;52.530;13.194;2023-01-09T04:24:21;12.27;;;6.82;;
39874;SDS011;25547;52.530;13.194;2023-01-09T04:26:47;11.52;;;7.55;;
39874;SDS011;25547;52.530;13.194;2023-01-09T04:29:14;11.73;;;5.97;;
39874;SDS011;25547;52.530;13.194;2023-01-09T04:31:40;12.93;;;7.13;;
39874;SDS011;25547;52.530;13.194;2023-01-09T04:34:08;14.27;;;8.02;;
39874;SDS011;25547;52.530;13.194;2023-01-09T04:36:33;12.13;;;6.63;;
39874;SDS011;25547;52.530;13.194;2023-01-09T04:39:00;11.45;;;7.15;;
39874;SDS011;25547;52.530;13.194;2023-01-09T04:41:28;15.05;;;8.80;;
39874;SDS011;25547;52.530;13.194;2023-01-09T04:44:12;22.73;;;11.95;;
39874;SDS011;25547;52.530;13.194;2023-01-09T04:46:38;22.52;;;11.00;;
39874;SDS011;25547;52.530;13.194;2023-01-09T04:49:03;12.05;;;7.90;;
39874;SDS011;25547;52.530;13.194;2023-01-09T04:51:29;12.45;;;7.28;;
39874;SDS011;25547;52.530;13.194;2023-01-09T04:53:55;13.00;;;7.63;;
39874;SDS011;25547;52.530;13.194;2023-01-09T04:56:20;12.55;;;6.97;;
39874;SDS011;25547;52.530;13.194;2023-01-09T04:58:48;14.77;;;7.97;;
39874;SDS011;25547;52.530;13.194;2023-01-09T05:01:14;12.73;;;7.32;;
39874;SDS011;25547;52.530;13.194;2023-01-09T05:03:42;13.02;;;7.30;;
39874;SDS011;25547;52.530;13.194;2023-01-09T05:06:08;11.88;;;7.10;;
39874;SDS011;25547;52.530;13.194;2023-01-09T05:08:36;12.02;;;8.02;;
39874;SDS011;25547;52.530;13.194;2023-01-09T05:11:04;16.25;;;7.45;;
39874;SDS011;25547;52.530;13.194;2023-01-09T05:13:30;13.95;;;7.70;;
39874;SDS011;25547;52.530;13.194;2023-01-09T05:15:58;14.55;;;7.47;;
39874;SDS011;25547;52.530;13.194;2023-01-09T05:18:23;12.80;;;6.82;;
39874;SDS011;25547;52.530;13.194;2023-01-09T05:20:51;15.45;;;8.15;;
39874;SDS011;25547;52.530;13.194;2023-01-09T05:23:19;16.33;;;8.60;;
39874;SDS011;25547;52.530;13.194;2023-01-09T05:25:47;16.05;;;9.10;;
39874;SDS011;25547;52.530;13.194;2023-01-09T05:28:15;14.63;;;8.00;;
39874;SDS011;25547;52.530;13.194;2023-01-09T05:30:41;14.75;;;8.07;;
39874;SDS011;25547;52.530;13.194;2023-01-09T05:33:09;14.20;;;7.85;;
39874;SDS011;25547;52.530;13.194;2023-01-09T05:35:34;14.85;;;8.45;;
39874;SDS011;25547;52.530;13.194;2023-01-09T05:38:00;11.82;;;7.03;;
39874;SDS011;25547;52.530;13.194;2023-01-09T05:40:28;13.30;;;6.97;;
39874;SDS011;25547;52.530;13.194;2023-01-09T05:42:54;13.20;;;7.43;;
39874;SDS011;25547;52.530;13.194;2023-01-09T05:45:20;13.43;;;7.35;;
39874;SDS011;25547;52.530;13.194;2023-01-09T05:47:45;14.38;;;6.85;;
39874;SDS011;25547;52.530;13.194;2023-01-09T05:50:12;11.63;;;6.75;;
39874;SDS011;25547;52.530;13.194;2023-01-09T05:52:42;10.98;;;6.65;;
39874;SDS011;25547;52.530;13.194;2023-01-09T05:55:08;14.27;;;7.78;;
39874;SDS011;25547;52.530;13.194;2023-01-09T05:57:36;14.63;;;8.27;;
39874;SDS011;25547;52.530;13.194;2023-01-09T06:00:02;13.45;;;7.80;;
39874;SDS011;25547;52.530;13.194;2023-01-09T06:02:29;14.23;;;8.35;;
39874;SDS011;25547;52.530;13.194;2023-01-09T06:04:54;30.02;;;15.27;;
39874;SDS011;25547;52.530;13.194;2023-01-09T06:07:20;16.17;;;9.13;;
39874;SDS011;25547;52.530;13.194;2023-01-09T06:09:46;17.55;;;7.85;;
39874;SDS011;25547;52.530;13.194;2023-01-09T06:12:11;15.90;;;8.95;;
39874;SDS011;25547;52.530;13.194;2023-01-09T06:14:37;16.95;;;8.88;;
39874;SDS011;25547;52.530;13.194;2023-01-09T06:17:02;18.08;;;9.93;;
39874;SDS011;25547;52.530;13.194;2023-01-09T06:19:30;16.38;;;9.55;;
39874;SDS011;25547;52.530;13.194;2023-01-09T06:21:56;13.93;;;9.35;;
39874;SDS011;25547;52.530;13.194;2023-01-09T06:24:21;18.73;;;9.00;;
39874;SDS011;25547;52.530;13.194;2023-01-09T06:26:47;19.13;;;10.48;;
39874;SDS011;25547;52.530;13.194;2023-01-09T06:29:12;16.67;;;9.02;;
39874;SDS011;25547;52.530;13.194;2023-01-09T06:31:38;18.00;;;9.65;;
39874;SDS011;25547;52.530;13.194;2023-01-09T06:34:06;17.33;;;10.57;;
39874;SDS011;25547;52.530;13.194;2023-01-09T06:36:32;14.43;;;9.15;;
39874;SDS011;25547;52.530;13.194;2023-01-09T06:38:58;17.70;;;10.68;;
39874;SDS011;25547;52.530;13.194;2023-01-09T06:41:24;19.38;;;9.77;;
39874;SDS011;25547;52.530;13.194;2023-01-09T06:43:50;25.10;;;12.25;;
39874;SDS011;25547;52.530;13.194;2023-01-09T06:46:16;19.95;;;11.32;;
39874;SDS011;25547;52.530;13.194;2023-01-09T06:48:41;32.78;;;18.42;;
39874;SDS011;25547;52.530;13.194;2023-01-09T06:51:09;19.15;;;10.95;;
39874;SDS011;25547;52.530;13.194;2023-01-09T06:53:37;18.77;;;10.90;;
39874;SDS011;25547;52.530;13.194;2023-01-09T06:56:03;19.58;;;12.13;;
39874;SDS011;25547;52.530;13.194;2023-01-09T06:58:29;19.00;;;10.55;;
39874;SDS011;25547;52.530;13.194;2023-01-09T07:00:55;23.48;;;11.82;;
39874;SDS011;25547;52.530;13.194;2023-01-09T07:03:22;21.20;;;11.25;;
39874;SDS011;25547;52.530;13.194;2023-01-09T07:05:50;25.58;;;13.10;;
39874;SDS011;25547;52.530;13.194;2023-01-09T07:08:16;23.42;;;11.45;;
39874;SDS011;25547;52.530;13.194;2023-01-09T07:10:42;25.67;;;12.50;;
39874;SDS011;25547;52.530;13.194;2023-01-09T07:13:08;22.10;;;11.55;;
39874;SDS011;25547;52.530;13.194;2023-01-09T07:15:34;21.55;;;12.10;;
39874;SDS011;25547;52.530;13.194;2023-01-09T07:17:59;23.83;;;12.88;;
39874;SDS011;25547;52.530;13.194;2023-01-09T07:20:25;22.58;;;12.85;;
39874;SDS011;25547;52.530;13.194;2023-01-09T07:22:51;25.15;;;13.10;;
39874;SDS011;25547;52.530;13.194;2023-01-09T07:25:18;22.33;;;12.43;;
39874;SDS011;25547;52.530;13.194;2023-01-09T07:27:44;23.20;;;12.63;;
39874;SDS011;25547;52.530;13.194;2023-01-09T07:30:12;22.67;;;12.25;;
39874;SDS011;25547;52.530;13.194;2023-01-09T07:32:38;20.10;;;11.18;;
39874;SDS011;25547;52.530;13.194;2023-01-09T07:35:07;53.85;;;27.60;;
39874;SDS011;25547;52.530;13.194;2023-01-09T07:37:33;24.70;;;13.40;;
39874;SDS011;25547;52.530;13.194;2023-01-09T07:39:59;25.98;;;12.57;;
39874;SDS011;25547;52.530;13.194;2023-01-09T07:42:27;20.10;;;11.80;;
39874;SDS011;25547;52.530;13.194;2023-01-09T07:44:55;23.95;;;13.23;;
39874;SDS011;25547;52.530;13.194;2023-01-09T07:47:21;21.55;;;12.43;;
39874;SDS011;25547;52.530;13.194;2023-01-09T07:49:46;24.35;;;12.68;;
39874;SDS011;25547;52.530;13.194;2023-01-09T07:52:12;20.38;;;12.00;;
39874;SDS011;25547;52.530;13.194;2023-01-09T07:54:38;19.35;;;10.23;;
39874;SDS011;25547;52.530;13.194;2023-01-09T07:57:06;18.42;;;10.73;;
39874;SDS011;25547;52.530;13.194;2023-01-09T07:59:32;19.92;;;10.95;;
39874;SDS011;25547;52.530;13.194;2023-01-09T08:02:00;20.30;;;11.48;;
39874;SDS011;25547;52.530;13.194;2023-01-09T08:04:29;21.25;;;11.82;;
39874;SDS011;25547;52.530;13.194;2023-01-09T08:06:55;20.98;;;10.75;;
39874;SDS011;25547;52.530;13.194;2023-01-09T08:09:21;22.58;;;11.68;;
39874;SDS011;25547;52.530;13.194;2023-01-09T08:11:46;20.65;;;11.52;;
39874;SDS011;25547;52.530;13.194;2023-01-09T08:14:12;23.40;;;11.35;;
39874;SDS011;25547;52.530;13.194;2023-01-09T08:16:38;21.20;;;12.10;;
39874;SDS011;25547;52.530;13.194;2023-01-09T08:19:05;22.70;;;12.25;;
39874;SDS011;25547;52.530;13.194;2023-01-09T08:21:36;19.00;;;10.50;;
39874;SDS011;25547;52.530;13.194;2023-01-09T08:24:02;20.50;;;12.05;;
39874;SDS011;25547;52.530;13.194;2023-01-09T08:26:28;25.33;;;11.70;;
39874;SDS011;25547;52.530;13.194;2023-01-09T08:28:56;36.70;;;19.98;;
39874;SDS011;25547;52.530;13.194;2023-01-09T08:31:22;26.35;;;12.70;;
39874;SDS011;25547;52.530;13.194;2023-01-09T08:33:48;47.75;;;22.95;;
39874;SDS011;25547;52.530;13.194;2023-01-09T08:36:13;22.33;;;12.00;;
39874;SDS011;25547;52.530;13.194;2023-01-09T08:38:39;21.95;;;11.65;;
39874;SDS011;25547;52.530;13.194;2023-01-09T08:41:05;24.45;;;11.73;;
39874;SDS011;25547;52.530;13.194;2023-01-09T08:43:49;17.95;;;10.65;;
39874;SDS011;25547;52.530;13.194;2023-01-09T08:46:44;21.90;;;11.73;;
39874;SDS011;25547;52.530;13.194;2023-01-09T08:49:28;20.33;;;10.52;;
39874;SDS011;25547;52.530;13.194;2023-01-09T08:51:53;20.02;;;11.05;;
39874;SDS011;25547;52.530;13.194;2023-01-09T08:54:19;19.55;;;11.57;;
39874;SDS011;25547;52.530;13.194;2023-01-09T08:56:45;20.35;;;10.88;;
39874;SDS011;25547;52.530;13.194;2023-01-09T08:59:10;20.40;;;11.90;;
39874;SDS011;25547;52.530;13.194;2023-01-09T09:01:37;21.58;;;10.73;;
39874;SDS011;25547;52.530;13.194;2023-01-09T09:04:03;21.48;;;10.93;;
39874;SDS011;25547;52.530;13.194;2023-01-09T09:06:31;17.50;;;10.35;;
39874;SDS011;25547;52.530;13.194;2023-01-09T09:08:57;17.35;;;9.25;;
39874;SDS011;25547;52.530;13.194;2023-01-09T09:11:27;17.48;;;9.20;;
39874;SDS011;25547;52.530;13.194;2023-01-09T09:14:02;17.10;;;9.73;;
39874;SDS011;25547;52.530;13.194;2023-01-09T09:16:51;14.90;;;8.68;;
39874;SDS011;25547;52.530;13.194;2023-01-09T09:19:17;12.50;;;7.35;;
39874;SDS011;25547;52.530;13.194;2023-01-09T09:21:43;14.63;;;7.65;;
39874;SDS011;25547;52.530;13.194;2023-01-09T09:24:11;19.95;;;9.05;;
39874;SDS011;25547;52.530;13.194;2023-01-09T09:26:39;13.75;;;7.82;;
39874;SDS011;25547;52.530;13.194;2023-01-09T09:29:04;14.70;;;8.07;;
39874;SDS011;25547;52.530;13.194;2023-01-09T09:31:30;14.52;;;7.60;;
39874;SDS011;25547;52.530;13.194;2023-01-09T09:33:56;12.15;;;6.75;;
39874;SDS011;25547;52.530;13.194;2023-01-09T09:36:22;11.95;;;7.15;;
39874;SDS011;25547;52.530;13.194;2023-01-09T09:38:48;14.70;;;7.50;;
39874;SDS011;25547;52.530;13.194;2023-01-09T09:52:51;13.07;;;6.97;;
39874;SDS011;25547;52.530;13.194;2023-01-09T09:57:57;13.02;;;6.70;;
39874;SDS011;25547;52.530;13.194;2023-01-09T10:00:27;10.48;;;5.60;;
39874;SDS011;25547;52.530;13.194;2023-01-09T10:05:34;12.68;;;6.38;;
39874;SDS011;25547;52.530;13.194;2023-01-09T10:10:59;10.32;;;5.43;;
39874;SDS011;25547;52.530;13.194;2023-01-09T10:13:29;10.82;;;5.85;;
39874;SDS011;25547;52.530;13.194;2023-01-09T10:24:19;9.77;;;5.07;;
39874;SDS011;25547;52.530;13.194;2023-01-09T10:26:53;7.40;;;4.25;;
39874;SDS011;25547;52.530;13.194;2023-01-09T10:37:54;6.05;;;3.28;;
39874;SDS011;25547;52.530;13.194;2023-01-09T10:40:27;7.30;;;3.72;;
39874;SDS011;25547;52.530;13.194;2023-01-09T10:43:01;5.30;;;3.28;;
39874;SDS011;25547;52.530;13.194;2023-01-09T10:45:37;7.77;;;2.67;;
39874;SDS011;25547;52.530;13.194;2023-01-09T10:51:03;4.85;;;2.90;;
39874;SDS011;25547;52.530;13.194;2023-01-09T10:53:41;3.92;;;1.60;;
39874;SDS011;25547;52.530;13.194;2023-01-09T10:56:26;5.38;;;2.20;;
39874;SDS011;25547;52.530;13.194;2023-01-09T10:58:56;4.45;;;2.47;;
39874;SDS011;25547;52.530;13.194;2023-01-09T11:01:29;3.50;;;1.73;;
39874;SDS011;25547;52.530;13.194;2023-01-09T11:03:58;3.80;;;1.17;;
39874;SDS011;25547;52.530;13.194;2023-01-09T11:06:39;7.13;;;1.70;;
39874;SDS011;25547;52.530;13.194;2023-01-09T11:09:10;3.25;;;1.27;;
39874;SDS011;25547;52.530;13.194;2023-01-09T11:11:37;4.47;;;1.67;;
39874;SDS011;25547;52.530;13.194;2023-01-09T11:14:27;5.07;;;1.75;;
39874;SDS011;25547;52.530;13.194;2023-01-09T11:17:01;3.58;;;1.35;;
39874;SDS011;25547;52.530;13.194;2023-01-09T11:19:30;4.85;;;2.03;;
39874;SDS011;25547;52.530;13.194;2023-01-09T11:22:10;4.70;;;1.02;;
39874;SDS011;25547;52.530;13.194;2023-01-09T11:24:40;4.43;;;1.20;;
39874;SDS011;25547;52.530;13.194;2023-01-09T11:29:39;3.25;;;1.58;;
39874;SDS011;25547;52.530;13.194;2023-01-09T11:32:15;3.20;;;1.42;;
39874;SDS011;25547;52.530;13.194;2023-01-09T11:34:46;5.47;;;1.50;;
39874;SDS011;25547;52.530;13.194;2023-01-09T11:37:12;2.40;;;1.00;;
39874;SDS011;25547;52.530;13.194;2023-01-09T11:39:45;4.07;;;1.15;;
39874;SDS011;25547;52.530;13.194;2023-01-09T11:42:22;3.95;;;0.63;;
39874;SDS011;25547;52.530;13.194;2023-01-09T11:45:18;5.68;;;0.90;;
39874;SDS011;25547;52.530;13.194;2023-01-09T11:47:48;4.93;;;1.00;;
39874;SDS011;25547;52.530;13.194;2023-01-09T11:53:06;5.00;;;0.98;;
39874;SDS011;25547;52.530;13.194;2023-01-09T11:55:38;2.25;;;0.60;;
39874;SDS011;25547;52.530;13.194;2023-01-09T11:58:04;5.40;;;0.70;;
39874;SDS011;25547;52.530;13.194;2023-01-09T12:00:32;4.43;;;0.68;;
39874;SDS011;25547;52.530;13.194;2023-01-09T12:05:43;3.15;;;0.30;;
39874;SDS011;25547;52.530;13.194;2023-01-09T12:13:36;2.65;;;0.30;;
39874;SDS011;25547;52.530;13.194;2023-01-09T12:52:11;2.50;;;0.20;;
39874;SDS011;25547;52.530;13.194;2023-01-09T12:57:29;4.15;;;0.63;;
39874;SDS011;25547;52.530;13.194;2023-01-09T13:00:02;1.55;;;0.20;;
39874;SDS011;25547;52.530;13.194;2023-01-09T13:05:39;5.32;;;1.05;;
39874;SDS011;25547;52.530;13.194;2023-01-09T13:10:42;2.65;;;0.28;;
39874;SDS011;25547;52.530;13.194;2023-01-09T13:13:15;3.25;;;0.20;;
39874;SDS011;25547;52.530;13.194;2023-01-09T13:15:59;1.48;;;0.20;;
39874;SDS011;25547;52.530;13.194;2023-01-09T13:18:31;3.63;;;0.32;;
39874;SDS011;25547;52.530;13.194;2023-01-09T13:21:07;3.47;;;0.85;;
39874;SDS011;25547;52.530;13.194;2023-01-09T13:23:56;3.35;;;0.22;;
39874;SDS011;25547;52.530;13.194;2023-01-09T13:26:38;1.92;;;0.25;;
39874;SDS011;25547;52.530;13.194;2023-01-09T13:29:20;3.72;;;0.20;;
39874;SDS011;25547;52.530;13.194;2023-01-09T13:34:46;4.55;;;0.20;;
39874;SDS011;25547;52.530;13.194;2023-01-09T13:39:53;10.13;;;1.17;;
39874;SDS011;25547;52.530;13.194;2023-01-09T13:42:28;3.28;;;0.30;;
39874;SDS011;25547;52.530;13.194;2023-01-09T13:45:08;1.83;;;0.30;;
39874;SDS011;25547;52.530;13.194;2023-01-09T13:47:43;3.08;;;0.55;;
39874;SDS011;25547;52.530;13.194;2023-01-09T13:52:35;2.78;;;0.32;;
39874;SDS011;25547;52.530;13.194;2023-01-09T14:08:10;1.20;;;0.10;;
39874;SDS011;25547;52.530;13.194;2023-01-09T14:13:27;4.47;;;0.30;;
39874;SDS011;25547;52.530;13.194;2023-01-09T14:16:04;2.47;;;0.20;;
39874;SDS011;25547;52.530;13.194;2023-01-09T14:18:36;3.05;;;0.10;;
39874;SDS011;25547;52.530;13.194;2023-01-09T14:21:04;1.55;;;0.30;;
39874;SDS011;25547;52.530;13.194;2023-01-09T14:23:36;2.15;;;0.10;;
39874;SDS011;25547;52.530;13.194;2023-01-09T14:26:20;2.97;;;0.10;;
39874;SDS011;25547;52.530;13.194;2023-01-09T14:28:48;3.60;;;0.20;;
39874;SDS011;25547;52.530;13.194;2023-01-09T14:31:34;3.35;;;0.20;;
39874;SDS011;25547;52.530;13.194;2023-01-09T14:36:53;1.42;;;0.20;;
39874;SDS011;25547;52.530;13.194;2023-01-09T14:39:22;3.28;;;0.10;;
39874;SDS011;25547;52.530;13.194;2023-01-09T14:41:50;2.60;;;0.30;;
39874;SDS011;25547;52.530;13.194;2023-01-09T14:47:20;1.27;;;0.10;;
39874;SDS011;25547;52.530;13.194;2023-01-09T14:52:52;1.58;;;0.20;;
39874;SDS011;25547;52.530;13.194;2023-01-09T15:01:07;1.50;;;0.10;;
39874;SDS011;25547;52.530;13.194;2023-01-09T15:03:40;3.10;;;0.20;;
39874;SDS011;25547;52.530;13.194;2023-01-09T15:06:21;1.30;;;0.10;;
39874;SDS011;25547;52.530;13.194;2023-01-09T15:09:35;2.88;;;0.20;;
39874;SDS011;25547;52.530;13.194;2023-01-09T15:11:57;3.80;;;0.10;;
39874;SDS011;25547;52.530;13.194;2023-01-09T15:14:32;4.90;;;0.40;;
39874;SDS011;25547;52.530;13.194;2023-01-09T15:16:58;3.17;;;0.95;;
39874;SDS011;25547;52.530;13.194;2023-01-09T15:19:30;1.10;;;0.10;;
39874;SDS011;25547;52.530;13.194;2023-01-09T15:22:00;2.03;;;0.30;;
39874;SDS011;25547;52.530;13.194;2023-01-09T15:24:29;2.20;;;0.30;;
39874;SDS011;25547;52.530;13.194;2023-01-09T15:27:01;5.63;;;0.60;;
39874;SDS011;25547;52.530;13.194;2023-01-09T15:29:34;4.57;;;0.20;;
39874;SDS011;25547;52.530;13.194;2023-01-09T15:34:29;4.15;;;0.60;;
39874;SDS011;25547;52.530;13.194;2023-01-09T15:36:55;6.57;;;0.30;;
39874;SDS011;25547;52.530;13.194;2023-01-09T15:39:27;2.92;;;0.30;;
39874;SDS011;25547;52.530;13.194;2023-01-09T15:41:55;3.83;;;0.45;;
39874;SDS011;25547;52.530;13.194;2023-01-09T15:44:41;3.00;;;0.20;;
39874;SDS011;25547;52.530;13.194;2023-01-09T15:47:13;3.20;;;0.88;;
39874;SDS011;25547;52.530;13.194;2023-01-09T15:49:44;2.15;;;0.10;;
39874;SDS011;25547;52.530;13.194;2023-01-09T15:52:14;2.65;;;0.20;;
39874;SDS011;25547;52.530;13.194;2023-01-09T15:54:43;5.13;;;0.10;;
39874;SDS011;25547;52.530;13.194;2023-01-09T15:59:54;3.58;;;0.10;;
39874;SDS011;25547;52.530;13.194;2023-01-09T16:02:22;4.25;;;0.10;;
39874;SDS011;25547;52.530;13.194;2023-01-09T16:05:08;4.15;;;0.28;;
39874;SDS011;25547;52.530;13.194;2023-01-09T16:07:45;2.67;;;0.20;;
39874;SDS011;25547;52.530;13.194;2023-01-09T16:10:47;3.42;;;0.30;;
39874;SDS011;25547;52.530;13.194;2023-01-09T16:13:03;1.80;;;0.10;;
39874;SDS011;25547;52.530;13.194;2023-01-09T16:15:37;3.65;;;0.30;;
39874;SDS011;25547;52.530;13.194;2023-01-09T16:20:41;1.90;;;0.20;;
39874;SDS011;25547;52.530;13.194;2023-01-09T16:23:20;2.00;;;0.50;;
39874;SDS011;25547;52.530;13.194;2023-01-09T16:25:49;4.57;;;0.50;;
39874;SDS011;25547;52.530;13.194;2023-01-09T16:33:32;4.38;;;1.20;;
39874;SDS011;25547;52.530;13.194;2023-01-09T16:35:59;1.88;;;0.20;;
39874;SDS011;25547;52.530;13.194;2023-01-09T16:38:32;3.55;;;0.20;;
39874;SDS011;25547;52.530;13.194;2023-01-09T16:41:07;1.35;;;0.17;;
39874;SDS011;25547;52.530;13.194;2023-01-09T16:44:02;4.20;;;0.20;;
39874;SDS011;25547;52.530;13.194;2023-01-09T16:46:42;2.35;;;0.10;;
39874;SDS011;25547;52.530;13.194;2023-01-09T16:51:45;3.72;;;0.10;;
39874;SDS011;25547;52.530;13.194;2023-01-09T16:54:14;1.30;;;0.10;;
39874;SDS011;25547;52.530;13.194;2023-01-09T16:56:42;3.58;;;0.30;;
39874;SDS011;25547;52.530;13.194;2023-01-09T16:59:10;1.52;;;0.10;;
39874;SDS011;25547;52.530;13.194;2023-01-09T17:01:38;2.95;;;0.73;;
39874;SDS011;25547;52.530;13.194;2023-01-09T17:04:12;3.20;;;0.20;;
39874;SDS011;25547;52.530;13.194;2023-01-09T17:06:41;3.35;;;0.20;;
39874;SDS011;25547;52.530;13.194;2023-01-09T17:09:11;1.20;;;0.20;;
39874;SDS011;25547;52.530;13.194;2023-01-09T17:11:41;1.90;;;0.20;;
39874;SDS011;25547;52.530;13.194;2023-01-09T17:14:10;3.83;;;0.30;;
39874;SDS011;25547;52.530;13.194;2023-01-09T17:16:42;6.03;;;1.48;;
39874;SDS011;25547;52.530;13.194;2023-01-09T17:19:19;6.23;;;0.67;;
39874;SDS011;25547;52.530;13.194;2023-01-09T17:21:47;5.55;;;1.60;;
39874;SDS011;25547;52.530;13.194;2023-01-09T17:24:18;1.23;;;0.20;;
39874;SDS011;25547;52.530;13.194;2023-01-09T17:27:02;1.63;;;0.10;;
39874;SDS011;25547;52.530;13.194;2023-01-09T17:29:48;1.95;;;0.10;;
39874;SDS011;25547;52.530;13.194;2023-01-09T17:32:19;3.95;;;0.20;;
39874;SDS011;25547;52.530;13.194;2023-01-09T17:34:45;1.80;;;0.22;;
39874;SDS011;25547;52.530;13.194;2023-01-09T17:37:13;2.20;;;0.20;;
39874;SDS011;25547;52.530;13.194;2023-01-09T17:39:44;5.07;;;0.20;;
39874;SDS011;25547;52.530;13.194;2023-01-09T17:42:12;1.40;;;0.20;;
39874;SDS011;25547;52.530;13.194;2023-01-09T17:44:37;3.35;;;0.20;;
39874;SDS011;25547;52.530;13.194;2023-01-09T17:47:03;2.10;;;0.30;;
39874;SDS011;25547;52.530;13.194;2023-01-09T17:49:30;7.38;;;0.40;;